sensor_id;sensor_type;location;lat;lon;timestamp;P1;P4;P2;P0;N10;N4;N25;N1;N05;TS
72225;SPS30;60130;52.250;5.048;2023-03-01T00:00:00;16.31;;19.14;;;;;;;
72225;SPS30;60130;52.250;5.048;2023-03-01T00:05:00;16.31;;16.41;;;;;;;
72225;SPS30;60130;52.250;5.048;2023-03-01T00:10:00;17.65;;15.45;;;;;;;
72225;SPS30;60130;52.250;5.048;2023-03-01T00:15:00;16.84;;15.70;;;;;;;
72225;SPS30;60130;52.250;5.048;2023-03-01T00:20:00;19.21;;17.28;;;;;;;
72225;SPS30;60130;52.250;5.048;2023-03-01T00:25:00;14.32;;13.83;;;;;;;
72225;SPS30;60130;52.250;5.048;2023-03-01T00:30:00;14.82;;14.08;;;;;;;
72225;SPS30;60130;52.250;5.048;2023-03-01T00:35:00;15.93;;15.29;;;;;;;
72225;SPS30;60130;52.250;5.048;2023-03-01T00:40:00;16.88;;16.29;;;;;;;
72225;SPS30;60130;52.250;5.048;2023-03-01T00:45:00;16.72;;16.19;;;;;;;
72225;SPS30;60130;52.250;5.048;2023-03-01T00:50:00;16.61;;16.07;;;;;;;
72225;SPS30;60130;52.250;5.048;2023-03-01T00:55:00;16.57;;16.06;;;;;;;
72225;SPS30;60130;52.250;5.048;2023-03-01T01:00:00;17.19;;16.23;;;;;;;
72225;SPS30;60130;52.250;5.048;2023-03-01T01:05:00;16.09;;15.66;;;;;;;
72225;SPS30;60130;52.250;5.048;2023-03-01T01:10:00;17.52;;16.84;;;;;;;
72225;SPS30;60130;52.250;5.048;2023-03-01T01:15:00;17.15;;16.96;;;;;;;
72225;SPS30;60130;52.250;5.048;2023-03-01T01:20:00;16.91;;15.84;;;;;;;
72225;SPS30;60130;52.250;5.048;2023-03-01T01:25:00;17.33;;16.70;;;;;;;
72225;SPS30;60130;52.250;5.048;2023-03-01T01:30:00;16.38;;14.95;;;;;;;
72225;SPS30;60130;52.250;5.048;2023-03-01T01:35:00;16.38;;15.94;;;;;;;
72225;SPS30;60130;52.250;5.048;2023-03-01T01:40:00;16.38;;17.77;;;;;;;
72225;SPS30;60130;52.250;5.048;2023-03-01T01:50:00;unavailable;;unavailable;;;;;;;
72225;SPS30;60130;52.250;5.048;2023-03-01T01:55:01;unavailable;;unavailable;;;;;;;
72225;SPS30;60130;52.250;5.048;2023-03-01T02:00:02;unavailable;;unavailable;;;;;;;
72225;SPS30;60130;52.250;5.048;2023-03-01T02:05:01;12.16;;11.81;;;;;;;
72225;SPS30;60130;52.250;5.048;2023-03-01T02:10:00;12.46;;12.11;;;;;;;
72225;SPS30;60130;52.250;5.048;2023-03-01T02:15:00;15.96;;15.43;;;;;;;
72225;SPS30;60130;52.250;5.048;2023-03-01T02:20:04;16.66;;15.61;;;;;;;
72225;SPS30;60130;52.250;5.048;2023-03-01T02:25:03;16.42;;15.83;;;;;;;
72225;SPS30;60130;52.250;5.048;2023-03-01T02:30:00;16.25;;15.72;;;;;;;
72225;SPS30;60130;52.250;5.048;2023-03-01T02:35:00;16.24;;15.61;;;;;;;
72225;SPS30;60130;52.250;5.048;2023-03-01T02:40:02;14.63;;14.22;;;;;;;
72225;SPS30;60130;52.250;5.048;2023-03-01T02:45:00;16.52;;15.72;;;;;;;
72225;SPS30;60130;52.250;5.048;2023-03-01T02:50:00;17.08;;15.06;;;;;;;
72225;SPS30;60130;52.250;5.048;2023-03-01T02:55:01;17.65;;15.18;;;;;;;
72225;SPS30;60130;52.250;5.048;2023-03-01T03:00:02;17.65;;16.33;;;;;;;
72225;SPS30;60130;52.250;5.048;2023-03-01T03:05:00;17.65;;15.23;;;;;;;
72225;SPS30;60130;52.250;5.048;2023-03-01T03:10:00;17.65;;18.66;;;;;;;
72225;SPS30;60130;52.250;5.048;2023-03-01T03:15:00;18.25;;17.40;;;;;;;
72225;SPS30;60130;52.250;5.048;2023-03-01T03:20:00;18.66;;17.99;;;;;;;
72225;SPS30;60130;52.250;5.048;2023-03-01T03:25:00;17.81;;17.10;;;;;;;
72225;SPS30;60130;52.250;5.048;2023-03-01T03:30:00;18.15;;17.43;;;;;;;
72225;SPS30;60130;52.250;5.048;2023-03-01T03:35:00;18.27;;17.70;;;;;;;
72225;SPS30;60130;52.250;5.048;2023-03-01T03:40:00;19.00;;18.24;;;;;;;
72225;SPS30;60130;52.250;5.048;2023-03-01T03:45:00;17.80;;17.35;;;;;;;
72225;SPS30;60130;52.250;5.048;2023-03-01T03:50:00;18.26;;16.34;;;;;;;
72225;SPS30;60130;52.250;5.048;2023-03-01T03:55:00;17.73;;16.97;;;;;;;
72225;SPS30;60130;52.250;5.048;2023-03-01T04:00:00;17.36;;17.01;;;;;;;
72225;SPS30;60130;52.250;5.048;2023-03-01T04:05:00;18.99;;17.56;;;;;;;
72225;SPS30;60130;52.250;5.048;2023-03-01T04:10:00;18.99;;15.93;;;;;;;
72225;SPS30;60130;52.250;5.048;2023-03-01T04:15:00;16.87;;14.71;;;;;;;
72225;SPS30;60130;52.250;5.048;2023-03-01T04:20:00;16.87;;12.13;;;;;;;
72225;SPS30;60130;52.250;5.048;2023-03-01T04:25:00;14.90;;14.44;;;;;;;
72225;SPS30;60130;52.250;5.048;2023-03-01T04:30:00;15.01;;14.23;;;;;;;
72225;SPS30;60130;52.250;5.048;2023-03-01T04:35:00;16.70;;16.07;;;;;;;
72225;SPS30;60130;52.250;5.048;2023-03-01T04:40:00;14.93;;14.32;;;;;;;
72225;SPS30;60130;52.250;5.048;2023-03-01T04:45:00;15.85;;15.29;;;;;;;
72225;SPS30;60130;52.250;5.048;2023-03-01T04:50:00;13.89;;13.49;;;;;;;
72225;SPS30;60130;52.250;5.048;2023-03-01T04:55:00;13.02;;12.53;;;;;;;
72225;SPS30;60130;52.250;5.048;2023-03-01T05:00:00;14.24;;10.56;;;;;;;
72225;SPS30;60130;52.250;5.048;2023-03-01T05:05:00;10.94;;8.63;;;;;;;
72225;SPS30;60130;52.250;5.048;2023-03-01T05:10:00;8.92;;9.25;;;;;;;
72225;SPS30;60130;52.250;5.048;2023-03-01T05:15:00;11.83;;11.54;;;;;;;
72225;SPS30;60130;52.250;5.048;2023-03-01T05:20:00;13.61;;12.85;;;;;;;
72225;SPS30;60130;52.250;5.048;2023-03-01T05:25:00;13.11;;12.81;;;;;;;
72225;SPS30;60130;52.250;5.048;2023-03-01T05:30:00;16.36;;15.39;;;;;;;
72225;SPS30;60130;52.250;5.048;2023-03-01T05:35:00;14.85;;14.35;;;;;;;
72225;SPS30;60130;52.250;5.048;2023-03-01T05:40:00;15.19;;14.49;;;;;;;
72225;SPS30;60130;52.250;5.048;2023-03-01T05:45:00;14.13;;13.74;;;;;;;
72225;SPS30;60130;52.250;5.048;2023-03-01T05:50:00;9.85;;9.46;;;;;;;
72225;SPS30;60130;52.250;5.048;2023-03-01T05:55:00;12.59;;12.36;;;;;;;
72225;SPS30;60130;52.250;5.048;2023-03-01T06:00:00;22.11;;21.18;;;;;;;
72225;SPS30;60130;52.250;5.048;2023-03-01T06:05:00;15.74;;14.54;;;;;;;
72225;SPS30;60130;52.250;5.048;2023-03-01T06:10:00;17.07;;16.48;;;;;;;
72225;SPS30;60130;52.250;5.048;2023-03-01T06:15:00;20.78;;20.23;;;;;;;
72225;SPS30;60130;52.250;5.048;2023-03-01T06:20:00;19.46;;18.55;;;;;;;
72225;SPS30;60130;52.250;5.048;2023-03-01T06:25:00;16.68;;17.44;;;;;;;
72225;SPS30;60130;52.250;5.048;2023-03-01T06:30:00;17.33;;16.82;;;;;;;
72225;SPS30;60130;52.250;5.048;2023-03-01T06:35:00;16.32;;15.78;;;;;;;
72225;SPS30;60130;52.250;5.048;2023-03-01T06:40:00;18.08;;17.25;;;;;;;
72225;SPS30;60130;52.250;5.048;2023-03-01T06:45:00;18.08;;17.86;;;;;;;
72225;SPS30;60130;52.250;5.048;2023-03-01T06:50:00;18.08;;15.14;;;;;;;
72225;SPS30;60130;52.250;5.048;2023-03-01T06:55:00;19.00;;17.07;;;;;;;
72225;SPS30;60130;52.250;5.048;2023-03-01T07:00:00;16.24;;15.39;;;;;;;
72225;SPS30;60130;52.250;5.048;2023-03-01T07:05:00;17.57;;16.40;;;;;;;
72225;SPS30;60130;52.250;5.048;2023-03-01T07:10:00;16.80;;15.65;;;;;;;
72225;SPS30;60130;52.250;5.048;2023-03-01T07:15:00;19.40;;18.53;;;;;;;
72225;SPS30;60130;52.250;5.048;2023-03-01T07:20:00;18.42;;16.80;;;;;;;
72225;SPS30;60130;52.250;5.048;2023-03-01T07:25:00;20.09;;18.69;;;;;;;
72225;SPS30;60130;52.250;5.048;2023-03-01T07:30:00;21.53;;20.58;;;;;;;
72225;SPS30;60130;52.250;5.048;2023-03-01T07:35:00;23.57;;21.01;;;;;;;
72225;SPS30;60130;52.250;5.048;2023-03-01T07:40:00;22.01;;20.57;;;;;;;
72225;SPS30;60130;52.250;5.048;2023-03-01T07:45:00;22.49;;21.54;;;;;;;
72225;SPS30;60130;52.250;5.048;2023-03-01T07:50:00;23.21;;20.87;;;;;;;
72225;SPS30;60130;52.250;5.048;2023-03-01T07:55:00;23.63;;21.32;;;;;;;
72225;SPS30;60130;52.250;5.048;2023-03-01T08:00:00;25.47;;22.84;;;;;;;
72225;SPS30;60130;52.250;5.048;2023-03-01T08:05:00;26.25;;23.71;;;;;;;
72225;SPS30;60130;52.250;5.048;2023-03-01T08:10:00;25.42;;23.54;;;;;;;
72225;SPS30;60130;52.250;5.048;2023-03-01T08:15:00;26.56;;24.49;;;;;;;
72225;SPS30;60130;52.250;5.048;2023-03-01T08:20:00;26.91;;24.83;;;;;;;
72225;SPS30;60130;52.250;5.048;2023-03-01T08:25:00;29.28;;26.63;;;;;;;
72225;SPS30;60130;52.250;5.048;2023-03-01T08:30:00;27.29;;25.30;;;;;;;
72225;SPS30;60130;52.250;5.048;2023-03-01T08:35:00;26.52;;24.26;;;;;;;
72225;SPS30;60130;52.250;5.048;2023-03-01T08:40:00;26.38;;23.70;;;;;;;
72225;SPS30;60130;52.250;5.048;2023-03-01T08:45:00;24.35;;22.71;;;;;;;
72225;SPS30;60130;52.250;5.048;2023-03-01T08:50:00;24.17;;20.09;;;;;;;
72225;SPS30;60130;52.250;5.048;2023-03-01T08:55:00;19.84;;18.64;;;;;;;
72225;SPS30;60130;52.250;5.048;2023-03-01T09:00:00;18.79;;17.67;;;;;;;
72225;SPS30;60130;52.250;5.048;2023-03-01T09:05:00;18.82;;16.84;;;;;;;
72225;SPS30;60130;52.250;5.048;2023-03-01T09:10:00;17.20;;16.52;;;;;;;
72225;SPS30;60130;52.250;5.048;2023-03-01T09:15:00;18.96;;17.69;;;;;;;
72225;SPS30;60130;52.250;5.048;2023-03-01T09:20:00;15.81;;15.03;;;;;;;
72225;SPS30;60130;52.250;5.048;2023-03-01T09:25:00;17.39;;16.17;;;;;;;
72225;SPS30;60130;52.250;5.048;2023-03-01T09:30:00;15.01;;14.22;;;;;;;
72225;SPS30;60130;52.250;5.048;2023-03-01T09:35:00;13.72;;13.27;;;;;;;
72225;SPS30;60130;52.250;5.048;2023-03-01T09:40:00;14.97;;14.31;;;;;;;
72225;SPS30;60130;52.250;5.048;2023-03-01T09:45:01;14.41;;14.10;;;;;;;
72225;SPS30;60130;52.250;5.048;2023-03-01T09:50:02;15.51;;14.32;;;;;;;
72225;SPS30;60130;52.250;5.048;2023-03-01T09:55:00;15.02;;14.41;;;;;;;
72225;SPS30;60130;52.250;5.048;2023-03-01T10:00:04;14.90;;14.57;;;;;;;
72225;SPS30;60130;52.250;5.048;2023-03-01T10:05:03;12.53;;11.97;;;;;;;
72225;SPS30;60130;52.250;5.048;2023-03-01T10:10:00;17.64;;16.11;;;;;;;
72225;SPS30;60130;52.250;5.048;2023-03-01T10:15:01;17.25;;16.23;;;;;;;
72225;SPS30;60130;52.250;5.048;2023-03-01T10:20:10;16.84;;16.25;;;;;;;
72225;SPS30;60130;52.250;5.048;2023-03-01T10:25:02;15.83;;15.01;;;;;;;
72225;SPS30;60130;52.250;5.048;2023-03-01T10:30:02;15.70;;14.89;;;;;;;
72225;SPS30;60130;52.250;5.048;2023-03-01T10:35:00;12.85;;12.67;;;;;;;
72225;SPS30;60130;52.250;5.048;2023-03-01T10:40:01;12.28;;11.63;;;;;;;
72225;SPS30;60130;52.250;5.048;2023-03-01T10:50:01;10.64;;10.24;;;;;;;
72225;SPS30;60130;52.250;5.048;2023-03-01T10:55:01;10.57;;10.15;;;;;;;
72225;SPS30;60130;52.250;5.048;2023-03-01T11:00:01;10.66;;10.32;;;;;;;
72225;SPS30;60130;52.250;5.048;2023-03-01T11:05:01;11.04;;10.76;;;;;;;
72225;SPS30;60130;52.250;5.048;2023-03-01T11:10:01;9.80;;9.45;;;;;;;
72225;SPS30;60130;52.250;5.048;2023-03-01T11:15:00;9.35;;8.88;;;;;;;
72225;SPS30;60130;52.250;5.048;2023-03-01T11:20:01;7.72;;7.15;;;;;;;
72225;SPS30;60130;52.250;5.048;2023-03-01T11:25:00;6.64;;6.88;;;;;;;
72225;SPS30;60130;52.250;5.048;2023-03-01T11:30:02;7.53;;7.49;;;;;;;
72225;SPS30;60130;52.250;5.048;2023-03-01T11:35:02;8.32;;8.08;;;;;;;
72225;SPS30;60130;52.250;5.048;2023-03-01T11:40:03;7.89;;7.89;;;;;;;
72225;SPS30;60130;52.250;5.048;2023-03-01T11:45:01;7.11;;6.86;;;;;;;
72225;SPS30;60130;52.250;5.048;2023-03-01T11:50:02;6.85;;7.03;;;;;;;
72225;SPS30;60130;52.250;5.048;2023-03-01T11:55:06;6.81;;6.74;;;;;;;
72225;SPS30;60130;52.250;5.048;2023-03-01T12:00:02;7.29;;7.07;;;;;;;
72225;SPS30;60130;52.250;5.048;2023-03-01T12:05:04;6.95;;7.13;;;;;;;
72225;SPS30;60130;52.250;5.048;2023-03-01T12:15:08;7.35;;7.19;;;;;;;
72225;SPS30;60130;52.250;5.048;2023-03-01T12:20:05;7.45;;7.28;;;;;;;
72225;SPS30;60130;52.250;5.048;2023-03-01T12:25:06;6.60;;6.43;;;;;;;
72225;SPS30;60130;52.250;5.048;2023-03-01T12:30:02;7.75;;7.39;;;;;;;
72225;SPS30;60130;52.250;5.048;2023-03-01T12:35:05;7.22;;6.97;;;;;;;
72225;SPS30;60130;52.250;5.048;2023-03-01T12:40:04;7.57;;7.43;;;;;;;
72225;SPS30;60130;52.250;5.048;2023-03-01T12:45:04;6.39;;6.29;;;;;;;
72225;SPS30;60130;52.250;5.048;2023-03-01T12:50:02;7.32;;7.10;;;;;;;
72225;SPS30;60130;52.250;5.048;2023-03-01T12:55:00;7.56;;7.31;;;;;;;
72225;SPS30;60130;52.250;5.048;2023-03-01T13:00:02;7.31;;7.19;;;;;;;
72225;SPS30;60130;52.250;5.048;2023-03-01T13:05:03;5.81;;5.73;;;;;;;
72225;SPS30;60130;52.250;5.048;2023-03-01T13:10:06;6.47;;6.41;;;;;;;
72225;SPS30;60130;52.250;5.048;2023-03-01T13:15:00;6.79;;6.64;;;;;;;
72225;SPS30;60130;52.250;5.048;2023-03-01T13:20:00;5.90;;5.77;;;;;;;
72225;SPS30;60130;52.250;5.048;2023-03-01T13:25:00;6.58;;6.46;;;;;;;
72225;SPS30;60130;52.250;5.048;2023-03-01T13:30:00;6.18;;6.02;;;;;;;
72225;SPS30;60130;52.250;5.048;2023-03-01T13:35:00;unavailable;;unavailable;;;;;;;
72225;SPS30;60130;52.250;5.048;2023-03-01T13:40:02;5.92;;5.92;;;;;;;
72225;SPS30;60130;52.250;5.048;2023-03-01T13:45:00;unavailable;;unavailable;;;;;;;
72225;SPS30;60130;52.250;5.048;2023-03-01T13:50:00;6.19;;6.09;;;;;;;
72225;SPS30;60130;52.250;5.048;2023-03-01T13:55:00;5.59;;5.50;;;;;;;
72225;SPS30;60130;52.250;5.048;2023-03-01T14:00:00;5.89;;5.89;;;;;;;
72225;SPS30;60130;52.250;5.048;2023-03-01T14:05:00;5.52;;5.52;;;;;;;
72225;SPS30;60130;52.250;5.048;2023-03-01T14:10:01;6.25;;5.36;;;;;;;
72225;SPS30;60130;52.250;5.048;2023-03-01T14:15:01;5.74;;5.39;;;;;;;
72225;SPS30;60130;52.250;5.048;2023-03-01T14:20:01;6.25;;6.23;;;;;;;
72225;SPS30;60130;52.250;5.048;2023-03-01T14:25:01;5.79;;6.22;;;;;;;
72225;SPS30;60130;52.250;5.048;2023-03-01T14:30:00;6.28;;6.28;;;;;;;
72225;SPS30;60130;52.250;5.048;2023-03-01T14:35:00;5.82;;5.39;;;;;;;
72225;SPS30;60130;52.250;5.048;2023-03-01T14:40:03;5.63;;6.53;;;;;;;
72225;SPS30;60130;52.250;5.048;2023-03-01T14:45:00;6.71;;6.66;;;;;;;
72225;SPS30;60130;52.250;5.048;2023-03-01T14:50:01;6.71;;6.10;;;;;;;
72225;SPS30;60130;52.250;5.048;2023-03-01T14:55:00;5.59;;5.59;;;;;;;
72225;SPS30;60130;52.250;5.048;2023-03-01T15:00:01;5.88;;5.83;;;;;;;
72225;SPS30;60130;52.250;5.048;2023-03-01T15:05:01;unavailable;;unavailable;;;;;;;
72225;SPS30;60130;52.250;5.048;2023-03-01T15:10:00;unavailable;;unavailable;;;;;;;
72225;SPS30;60130;52.250;5.048;2023-03-01T15:15:00;unavailable;;unavailable;;;;;;;
72225;SPS30;60130;52.250;5.048;2023-03-01T15:20:00;6.81;;6.34;;;;;;;
72225;SPS30;60130;52.250;5.048;2023-03-01T15:25:00;6.22;;6.12;;;;;;;
72225;SPS30;60130;52.250;5.048;2023-03-01T15:30:00;6.44;;6.07;;;;;;;
72225;SPS30;60130;52.250;5.048;2023-03-01T15:35:01;6.93;;7.06;;;;;;;
72225;SPS30;60130;52.250;5.048;2023-03-01T15:40:00;5.93;;5.90;;;;;;;
72225;SPS30;60130;52.250;5.048;2023-03-01T15:45:08;5.57;;5.47;;;;;;;
72225;SPS30;60130;52.250;5.048;2023-03-01T15:50:00;5.84;;5.76;;;;;;;
72225;SPS30;60130;52.250;5.048;2023-03-01T15:55:01;6.24;;6.15;;;;;;;
72225;SPS30;60130;52.250;5.048;2023-03-01T16:00:00;6.39;;6.37;;;;;;;
72225;SPS30;60130;52.250;5.048;2023-03-01T16:05:00;5.95;;5.89;;;;;;;
72225;SPS30;60130;52.250;5.048;2023-03-01T16:10:00;5.80;;6.08;;;;;;;
72225;SPS30;60130;52.250;5.048;2023-03-01T16:15:00;7.30;;6.01;;;;;;;
72225;SPS30;60130;52.250;5.048;2023-03-01T16:20:00;7.30;;7.31;;;;;;;
72225;SPS30;60130;52.250;5.048;2023-03-01T16:25:00;7.03;;6.77;;;;;;;
72225;SPS30;60130;52.250;5.048;2023-03-01T16:30:00;6.40;;6.36;;;;;;;
72225;SPS30;60130;52.250;5.048;2023-03-01T16:35:00;6.45;;6.41;;;;;;;
72225;SPS30;60130;52.250;5.048;2023-03-01T16:40:00;6.47;;6.48;;;;;;;
72225;SPS30;60130;52.250;5.048;2023-03-01T16:45:00;7.12;;6.99;;;;;;;
72225;SPS30;60130;52.250;5.048;2023-03-01T16:50:00;7.02;;8.18;;;;;;;
72225;SPS30;60130;52.250;5.048;2023-03-01T16:55:01;7.18;;7.28;;;;;;;
72225;SPS30;60130;52.250;5.048;2023-03-01T17:00:00;7.16;;6.69;;;;;;;
72225;SPS30;60130;52.250;5.048;2023-03-01T17:05:00;6.67;;6.55;;;;;;;
72225;SPS30;60130;52.250;5.048;2023-03-01T17:10:00;7.90;;16.90;;;;;;;
72225;SPS30;60130;52.250;5.048;2023-03-01T17:15:00;8.63;;6.82;;;;;;;
72225;SPS30;60130;52.250;5.048;2023-03-01T17:20:00;7.65;;7.47;;;;;;;
72225;SPS30;60130;52.250;5.048;2023-03-01T17:25:00;7.01;;6.88;;;;;;;
72225;SPS30;60130;52.250;5.048;2023-03-01T17:30:00;7.11;;7.36;;;;;;;
72225;SPS30;60130;52.250;5.048;2023-03-01T17:35:00;unavailable;;unavailable;;;;;;;
72225;SPS30;60130;52.250;5.048;2023-03-01T17:40:00;7.70;;7.51;;;;;;;
72225;SPS30;60130;52.250;5.048;2023-03-01T17:45:00;8.15;;8.07;;;;;;;
72225;SPS30;60130;52.250;5.048;2023-03-01T17:50:00;10.11;;9.79;;;;;;;
72225;SPS30;60130;52.250;5.048;2023-03-01T17:55:00;30.34;;29.22;;;;;;;
72225;SPS30;60130;52.250;5.048;2023-03-01T18:00:00;29.52;;29.22;;;;;;;
72225;SPS30;60130;52.250;5.048;2023-03-01T18:05:00;9.07;;8.88;;;;;;;
72225;SPS30;60130;52.250;5.048;2023-03-01T18:10:00;14.04;;13.65;;;;;;;
72225;SPS30;60130;52.250;5.048;2023-03-01T18:15:00;14.47;;11.66;;;;;;;
72225;SPS30;60130;52.250;5.048;2023-03-01T18:20:00;14.24;;13.47;;;;;;;
72225;SPS30;60130;52.250;5.048;2023-03-01T18:25:00;15.70;;15.15;;;;;;;
72225;SPS30;60130;52.250;5.048;2023-03-01T18:30:00;34.45;;29.60;;;;;;;
72225;SPS30;60130;52.250;5.048;2023-03-01T18:35:00;25.98;;10.11;;;;;;;
72225;SPS30;60130;52.250;5.048;2023-03-01T18:40:00;12.77;;12.19;;;;;;;
72225;SPS30;60130;52.250;5.048;2023-03-01T18:45:00;12.77;;20.11;;;;;;;
72225;SPS30;60130;52.250;5.048;2023-03-01T18:50:00;23.96;;18.54;;;;;;;
72225;SPS30;60130;52.250;5.048;2023-03-01T18:55:00;unavailable;;unavailable;;;;;;;
72225;SPS30;60130;52.250;5.048;2023-03-01T19:00:00;unavailable;;unavailable;;;;;;;
72225;SPS30;60130;52.250;5.048;2023-03-01T19:05:00;unavailable;;unavailable;;;;;;;
72225;SPS30;60130;52.250;5.048;2023-03-01T19:10:00;unavailable;;unavailable;;;;;;;
72225;SPS30;60130;52.250;5.048;2023-03-01T19:15:00;unavailable;;unavailable;;;;;;;
72225;SPS30;60130;52.250;5.048;2023-03-01T19:20:00;21.93;;18.76;;;;;;;
72225;SPS30;60130;52.250;5.048;2023-03-01T19:25:00;15.51;;14.31;;;;;;;
72225;SPS30;60130;52.250;5.048;2023-03-01T19:30:00;15.81;;14.85;;;;;;;
72225;SPS30;60130;52.250;5.048;2023-03-01T19:35:00;16.13;;15.07;;;;;;;
72225;SPS30;60130;52.250;5.048;2023-03-01T19:40:00;15.00;;14.24;;;;;;;
72225;SPS30;60130;52.250;5.048;2023-03-01T19:45:00;13.81;;12.62;;;;;;;
72225;SPS30;60130;52.250;5.048;2023-03-01T19:50:00;12.56;;12.12;;;;;;;
72225;SPS30;60130;52.250;5.048;2023-03-01T19:55:00;11.93;;11.67;;;;;;;
72225;SPS30;60130;52.250;5.048;2023-03-01T20:00:00;11.94;;11.66;;;;;;;
72225;SPS30;60130;52.250;5.048;2023-03-01T20:05:00;13.34;;13.30;;;;;;;
72225;SPS30;60130;52.250;5.048;2023-03-01T20:10:00;16.49;;12.06;;;;;;;
72225;SPS30;60130;52.250;5.048;2023-03-01T20:15:00;13.14;;14.04;;;;;;;
72225;SPS30;60130;52.250;5.048;2023-03-01T20:20:00;14.35;;13.90;;;;;;;
72225;SPS30;60130;52.250;5.048;2023-03-01T20:25:00;14.35;;13.09;;;;;;;
72225;SPS30;60130;52.250;5.048;2023-03-01T20:30:00;16.87;;15.66;;;;;;;
72225;SPS30;60130;52.250;5.048;2023-03-01T20:35:00;unavailable;;unavailable;;;;;;;
72225;SPS30;60130;52.250;5.048;2023-03-01T20:40:00;15.53;;14.63;;;;;;;
72225;SPS30;60130;52.250;5.048;2023-03-01T20:45:00;14.70;;14.23;;;;;;;
72225;SPS30;60130;52.250;5.048;2023-03-01T20:50:00;14.94;;14.30;;;;;;;
72225;SPS30;60130;52.250;5.048;2023-03-01T20:55:00;15.58;;14.70;;;;;;;
72225;SPS30;60130;52.250;5.048;2023-03-01T21:00:00;15.16;;15.16;;;;;;;
72225;SPS30;60130;52.250;5.048;2023-03-01T21:05:00;13.76;;13.73;;;;;;;
72225;SPS30;60130;52.250;5.048;2023-03-01T21:10:00;13.93;;13.31;;;;;;;
72225;SPS30;60130;52.250;5.048;2023-03-01T21:15:00;14.01;;13.38;;;;;;;
72225;SPS30;60130;52.250;5.048;2023-03-01T21:20:00;13.84;;12.52;;;;;;;
72225;SPS30;60130;52.250;5.048;2023-03-01T21:25:00;14.28;;12.74;;;;;;;
72225;SPS30;60130;52.250;5.048;2023-03-01T21:30:00;13.48;;12.83;;;;;;;
72225;SPS30;60130;52.250;5.048;2023-03-01T21:35:00;13.05;;12.01;;;;;;;
72225;SPS30;60130;52.250;5.048;2023-03-01T21:40:00;11.76;;12.46;;;;;;;
72225;SPS30;60130;52.250;5.048;2023-03-01T21:45:00;11.76;;12.45;;;;;;;
72225;SPS30;60130;52.250;5.048;2023-03-01T21:50:00;26.18;;22.90;;;;;;;
72225;SPS30;60130;52.250;5.048;2023-03-01T21:55:00;unavailable;;unavailable;;;;;;;
72225;SPS30;60130;52.250;5.048;2023-03-01T22:00:00;16.85;;15.37;;;;;;;
72225;SPS30;60130;52.250;5.048;2023-03-01T22:05:00;23.79;;17.87;;;;;;;
72225;SPS30;60130;52.250;5.048;2023-03-01T22:10:00;18.37;;17.05;;;;;;;
72225;SPS30;60130;52.250;5.048;2023-03-01T22:15:00;21.90;;19.37;;;;;;;
72225;SPS30;60130;52.250;5.048;2023-03-01T22:20:00;21.92;;19.68;;;;;;;
72225;SPS30;60130;52.250;5.048;2023-03-01T22:25:00;unavailable;;unavailable;;;;;;;
72225;SPS30;60130;52.250;5.048;2023-03-01T22:30:00;23.19;;20.04;;;;;;;
72225;SPS30;60130;52.250;5.048;2023-03-01T22:35:00;22.07;;19.40;;;;;;;
72225;SPS30;60130;52.250;5.048;2023-03-01T22:40:00;20.27;;20.03;;;;;;;
72225;SPS30;60130;52.250;5.048;2023-03-01T22:45:00;30.08;;25.60;;;;;;;
72225;SPS30;60130;52.250;5.048;2023-03-01T22:50:00;unavailable;;unavailable;;;;;;;
72225;SPS30;60130;52.250;5.048;2023-03-01T22:55:00;32.36;;28.20;;;;;;;
72225;SPS30;60130;52.250;5.048;2023-03-01T23:00:00;32.74;;28.72;;;;;;;
72225;SPS30;60130;52.250;5.048;2023-03-01T23:05:00;unavailable;;unavailable;;;;;;;
72225;SPS30;60130;52.250;5.048;2023-03-01T23:10:00;34.63;;29.63;;;;;;;
72225;SPS30;60130;52.250;5.048;2023-03-01T23:15:00;43.05;;36.39;;;;;;;
72225;SPS30;60130;52.250;5.048;2023-03-01T23:20:00;37.19;;31.28;;;;;;;
72225;SPS30;60130;52.250;5.048;2023-03-01T23:25:00;37.34;;32.44;;;;;;;
72225;SPS30;60130;52.250;5.048;2023-03-01T23:30:00;44.84;;34.01;;;;;;;
72225;SPS30;60130;52.250;5.048;2023-03-01T23:35:00;34.45;;29.93;;;;;;;
72225;SPS30;60130;52.250;5.048;2023-03-01T23:40:00;37.55;;31.16;;;;;;;
72225;SPS30;60130;52.250;5.048;2023-03-01T23:45:00;77.41;;59.96;;;;;;;
72225;SPS30;60130;52.250;5.048;2023-03-01T23:50:00;46.99;;37.60;;;;;;;
72225;SPS30;60130;52.250;5.048;2023-03-01T23:55:00;94.16;;70.29;;;;;;;
